ADDS METAR Data INFO
IDs: Format: Raw Decoded Include TAF

Data at: 1314 UTC 19 Jul 2018

KGTF 191253Z 25004KT 10SM FEW043 16/11 A3011 RMK AO2 SLP162 T01560111
KGTF 191153Z 24005KT 10SM FEW025 OVC039 16/11 A3011 RMK AO2 SLP160 T01560111 10200 20139 51007
KGTF 191053Z 23006KT 10SM BKN042 16/11 A3011 RMK AO2 SLP160 T01560111
KGTF 190953Z 24007KT 10SM SCT037 15/11 A3011 RMK AO2 SLP161 T01500111
KGTF 190853Z 36008KT 10SM FEW090 18/12 A3008 RMK AO2 SLP152 T01830117 51022
KGTF 190753Z 01012KT 10SM CLR 19/10 A3007 RMK AO2 SLP143 T01890100
KGTF 190653Z 33004KT 10SM CLR 17/07 A3003 RMK AO2 SLP131 T01720067 403560172
KGTF 190553Z 28005KT 10SM CLR 19/06 A3001 RMK AO2 SLP123 T01890061 10344 20178 51018
KGTF 190453Z 28003KT 10SM CLR 20/05 A3000 RMK AO2 SLP119 T02000050
KGTF 190353Z 34006KT 10SM CLR 23/07 A2998 RMK AO2 SLP113 T02280067
KGTF 190253Z 33006KT 10SM CLR 27/01 A2995 RMK AO2 SLP103 T02670011 53010
KGTF 190153Z 30008KT 10SM CLR 32/01 A2994 RMK AO2 SLP094 T03170011
KGTF 190053Z 30014G18KT 10SM CLR 33/M01 A2993 RMK AO2 SLP092 T03331011
KGTF 182353Z 32016G24KT 10SM CLR 34/00 A2992 RMK AO2 PK WND 33027/2257 SLP090 T03440000 10356 20317 55009
KGTF 182253Z 32008G17KT 10SM FEW120 33/02 A2992 RMK AO2 SLP090 T03280022
KGTF 182153Z 31013G18KT 10SM SCT120 35/03 A2993 RMK AO2 SLP090 T03500033
KGTF 182053Z 32005KT 10SM OVC110 32/04 A2995 RMK AO2 SLP102 T03170044 56013
KGTF 181953Z 29010G16KT 10SM FEW110 34/04 A2996 RMK AO2 PK WND 24026/1902 SLP101 T03390039
KGTF 181853Z 26009G18KT 230V300 10SM CLR 33/04 A2998 RMK AO2 WSHFT 1758 SLP109 T03280039
KGTF 181818Z 26014G22KT 230V300 10SM CLR 33/03 A2999 RMK AO2 WSHFT 1758 T03330028
KGTF 181753Z 28013G22KT 10SM CLR 33/02 A2999 RMK AO2 WSHFT 1701 SLP113 T03280022 10333 20194 58005
KGTF 181721Z 27016G24KT 10SM CLR 33/01 A3000 RMK AO2 WSHFT 1701 T03280011
KGTF 181653Z 22011G17KT 10SM CLR 32/06 A3001 RMK AO2 SLP120 T03170056
KGTF 181553Z 21015G19KT 10SM CLR 28/09 A3001 RMK AO2 SLP125 T02830094
KGTF 181453Z 23016KT 10SM CLR 26/10 A3001 RMK AO2 SLP123 T02560100 53001
KGTF 181353Z 20010KT 10SM CLR 23/09 A3001 RMK AO2 SLP123 T02330094
KGTF 181253Z 20011KT 10SM CLR 21/09 A3001 RMK AO2 SLP121 T02060094
KGTF 181153Z 20010KT 10SM CLR 20/09 A3001 RMK AO2 SLP123 T02000089 10233 20194 58001
KGTF 181053Z 17009KT 10SM FEW110 20/09 A3001 RMK AO2 SLP125 T02000094
KGTF 180953Z 14008KT 10SM CLR 20/11 A3003 RMK AO2 SLP132 T02000106
KGTF 180853Z 20008KT 10SM CLR 21/09 A3001 RMK AO2 SLP127 T02060094 55001
KGTF 180753Z 21011KT 10SM CLR 23/09 A3001 RMK AO2 SLP123 T02280094
KGTF 180653Z 21009KT 10SM CLR 22/09 A3001 RMK AO2 SLP122 T02220094 403220156
KGTF 180553Z 21010KT 10SM CLR 23/09 A3002 RMK AO2 SLP122 T02330094 10322 20206 54000
KGTF 180453Z 21008KT 10SM CLR 22/10 A3002 RMK AO2 SLP127 T02220100
KGTF 180353Z 22010KT 10SM CLR 23/11 A3001 RMK AO2 SLP127 T02280111
KGTF 180253Z 23008KT 10SM CLR 27/12 A3002 RMK AO2 SLP126 T02670117 53002
KGTF 180153Z 21008KT 10SM CLR 28/10 A3002 RMK AO2 SLP126 T02830100